sensor_id;sensor_type;location;lat;lon;timestamp;temperature;humidity
1678;DHT22;6034;46.864;15.216;2023-08-12T06:15:53;19.20;99.90
1678;DHT22;6034;46.864;15.216;2023-08-12T06:18:20;19.40;99.90
1678;DHT22;6034;46.864;15.216;2023-08-12T06:20:47;19.30;99.90
1678;DHT22;6034;46.864;15.216;2023-08-12T06:23:15;19.10;99.90
1678;DHT22;6034;46.864;15.216;2023-08-12T06:25:43;19.50;99.90
1678;DHT22;6034;46.864;15.216;2023-08-12T06:28:10;19.50;99.90
1678;DHT22;6034;46.864;15.216;2023-08-12T06:30:38;19.30;99.90
1678;DHT22;6034;46.864;15.216;2023-08-12T06:33:07;19.10;99.90
1678;DHT22;6034;46.864;15.216;2023-08-12T06:35:34;19.20;99.90
1678;DHT22;6034;46.864;15.216;2023-08-12T06:38:02;19.20;99.90
1678;DHT22;6034;46.864;15.216;2023-08-12T06:40:29;19.50;99.90
1678;DHT22;6034;46.864;15.216;2023-08-12T06:42:56;19.40;99.90
1678;DHT22;6034;46.864;15.216;2023-08-12T06:45:24;19.40;99.90
1678;DHT22;6034;46.864;15.216;2023-08-12T06:47:51;19.80;99.90
1678;DHT22;6034;46.864;15.216;2023-08-12T06:50:20;20.00;99.90
1678;DHT22;6034;46.864;15.216;2023-08-12T06:52:47;20.10;99.90
1678;DHT22;6034;46.864;15.216;2023-08-12T06:55:15;20.30;99.90
1678;DHT22;6034;46.864;15.216;2023-08-12T06:57:42;20.40;99.90
1678;DHT22;6034;46.864;15.216;2023-08-12T07:00:10;20.60;99.90
1678;DHT22;6034;46.864;15.216;2023-08-12T07:02:38;20.70;99.90
1678;DHT22;6034;46.864;15.216;2023-08-12T07:05:06;21.00;99.90
1678;DHT22;6034;46.864;15.216;2023-08-12T07:07:35;21.10;99.90
1678;DHT22;6034;46.864;15.216;2023-08-12T07:10:03;20.70;99.90
1678;DHT22;6034;46.864;15.216;2023-08-12T07:12:32;20.60;99.90
1678;DHT22;6034;46.864;15.216;2023-08-12T07:14:59;20.80;99.90
1678;DHT22;6034;46.864;15.216;2023-08-12T07:17:26;20.90;99.90
1678;DHT22;6034;46.864;15.216;2023-08-12T07:19:54;20.60;99.90
1678;DHT22;6034;46.864;15.216;2023-08-12T07:22:21;20.70;99.90
1678;DHT22;6034;46.864;15.216;2023-08-12T07:24:50;20.70;99.90
1678;DHT22;6034;46.864;15.216;2023-08-12T07:27:18;20.40;99.90
1678;DHT22;6034;46.864;15.216;2023-08-12T07:29:45;20.70;99.90
1678;DHT22;6034;46.864;15.216;2023-08-12T07:32:13;20.90;99.90
1678;DHT22;6034;46.864;15.216;2023-08-12T07:34:41;20.80;99.90
1678;DHT22;6034;46.864;15.216;2023-08-12T07:37:08;20.80;99.90
1678;DHT22;6034;46.864;15.216;2023-08-12T07:39:35;20.80;99.90
1678;DHT22;6034;46.864;15.216;2023-08-12T07:42:04;21.00;99.90
1678;DHT22;6034;46.864;15.216;2023-08-12T07:44:32;20.90;99.90
1678;DHT22;6034;46.864;15.216;2023-08-12T07:47:00;21.20;99.90
1678;DHT22;6034;46.864;15.216;2023-08-12T07:49:28;21.60;99.90
1678;DHT22;6034;46.864;15.216;2023-08-12T07:51:55;21.80;99.90
1678;DHT22;6034;46.864;15.216;2023-08-12T07:54:23;21.20;99.90
1678;DHT22;6034;46.864;15.216;2023-08-12T07:56:50;21.60;99.90
1678;DHT22;6034;46.864;15.216;2023-08-12T07:59:20;21.80;99.90
1678;DHT22;6034;46.864;15.216;2023-08-12T08:01:48;21.90;99.90
1678;DHT22;6034;46.864;15.216;2023-08-12T08:04:15;22.20;99.90
1678;DHT22;6034;46.864;15.216;2023-08-12T08:06:42;22.20;99.90
1678;DHT22;6034;46.864;15.216;2023-08-12T08:09:10;22.50;99.90
1678;DHT22;6034;46.864;15.216;2023-08-12T08:11:37;22.50;99.90
1678;DHT22;6034;46.864;15.216;2023-08-12T08:14:05;22.30;99.90
1678;DHT22;6034;46.864;15.216;2023-08-12T08:16:33;22.50;99.90
1678;DHT22;6034;46.864;15.216;2023-08-12T08:19:01;22.50;99.90
1678;DHT22;6034;46.864;15.216;2023-08-12T08:21:28;22.70;99.90
1678;DHT22;6034;46.864;15.216;2023-08-12T08:23:55;22.70;99.90
1678;DHT22;6034;46.864;15.216;2023-08-12T08:26:23;22.90;99.90
1678;DHT22;6034;46.864;15.216;2023-08-12T08:28:50;22.70;99.90
1678;DHT22;6034;46.864;15.216;2023-08-12T08:31:18;22.90;99.90
1678;DHT22;6034;46.864;15.216;2023-08-12T08:33:47;23.00;99.90
1678;DHT22;6034;46.864;15.216;2023-08-12T08:36:14;22.90;99.90
1678;DHT22;6034;46.864;15.216;2023-08-12T08:38:42;22.70;99.90
1678;DHT22;6034;46.864;15.216;2023-08-12T08:41:09;22.90;99.90
1678;DHT22;6034;46.864;15.216;2023-08-12T08:43:42;23.00;99.90
1678;DHT22;6034;46.864;15.216;2023-08-12T08:46:11;22.50;99.90
1678;DHT22;6034;46.864;15.216;2023-08-12T08:48:39;22.70;99.90
1678;DHT22;6034;46.864;15.216;2023-08-12T08:51:10;23.00;99.90
1678;DHT22;6034;46.864;15.216;2023-08-12T08:53:38;23.30;99.90
1678;DHT22;6034;46.864;15.216;2023-08-12T08:56:07;23.50;99.90
1678;DHT22;6034;46.864;15.216;2023-08-12T08:58:37;23.80;99.90
1678;DHT22;6034;46.864;15.216;2023-08-12T09:01:06;24.00;99.90
1678;DHT22;6034;46.864;15.216;2023-08-12T09:03:35;24.10;99.90
1678;DHT22;6034;46.864;15.216;2023-08-12T09:06:03;24.10;99.90
1678;DHT22;6034;46.864;15.216;2023-08-12T09:08:33;24.30;99.90
1678;DHT22;6034;46.864;15.216;2023-08-12T09:11:02;24.20;99.90
1678;DHT22;6034;46.864;15.216;2023-08-12T09:13:30;24.30;99.90
1678;DHT22;6034;46.864;15.216;2023-08-12T09:15:58;24.50;99.90
1678;DHT22;6034;46.864;15.216;2023-08-12T09:18:26;24.60;99.90
1678;DHT22;6034;46.864;15.216;2023-08-12T09:20:54;24.60;99.90
1678;DHT22;6034;46.864;15.216;2023-08-12T09:23:22;24.70;99.90
1678;DHT22;6034;46.864;15.216;2023-08-12T09:25:51;24.90;99.90
1678;DHT22;6034;46.864;15.216;2023-08-12T09:28:18;25.00;99.90
1678;DHT22;6034;46.864;15.216;2023-08-12T09:30:50;25.00;99.90
1678;DHT22;6034;46.864;15.216;2023-08-12T09:33:24;24.80;99.90
1678;DHT22;6034;46.864;15.216;2023-08-12T09:35:52;25.00;99.90
1678;DHT22;6034;46.864;15.216;2023-08-12T09:38:19;25.10;99.90
1678;DHT22;6034;46.864;15.216;2023-08-12T09:40:48;25.10;99.90
1678;DHT22;6034;46.864;15.216;2023-08-12T09:43:17;24.80;99.90
1678;DHT22;6034;46.864;15.216;2023-08-12T09:45:45;25.00;99.90
1678;DHT22;6034;46.864;15.216;2023-08-12T09:48:12;25.20;99.90
1678;DHT22;6034;46.864;15.216;2023-08-12T09:50:40;25.40;99.90
1678;DHT22;6034;46.864;15.216;2023-08-12T09:53:09;25.40;99.90
1678;DHT22;6034;46.864;15.216;2023-08-12T09:55:37;25.40;99.90
1678;DHT22;6034;46.864;15.216;2023-08-12T09:58:06;25.30;99.90
1678;DHT22;6034;46.864;15.216;2023-08-12T10:00:37;25.00;99.90
1678;DHT22;6034;46.864;15.216;2023-08-12T10:03:07;25.10;99.90
1678;DHT22;6034;46.864;15.216;2023-08-12T10:05:35;25.20;99.90
1678;DHT22;6034;46.864;15.216;2023-08-12T10:08:04;25.10;99.90
1678;DHT22;6034;46.864;15.216;2023-08-12T10:10:34;25.10;99.90
1678;DHT22;6034;46.864;15.216;2023-08-12T10:13:02;25.10;99.90
1678;DHT22;6034;46.864;15.216;2023-08-12T10:15:33;24.80;99.90
1678;DHT22;6034;46.864;15.216;2023-08-12T10:18:03;25.00;99.90
1678;DHT22;6034;46.864;15.216;2023-08-12T10:20:32;25.30;99.90
1678;DHT22;6034;46.864;15.216;2023-08-12T10:23:02;25.30;99.90
1678;DHT22;6034;46.864;15.216;2023-08-12T10:25:33;25.60;99.90
1678;DHT22;6034;46.864;15.216;2023-08-12T10:28:01;25.80;99.90
1678;DHT22;6034;46.864;15.216;2023-08-12T10:30:30;26.00;99.90
1678;DHT22;6034;46.864;15.216;2023-08-12T10:32:59;26.00;99.90
1678;DHT22;6034;46.864;15.216;2023-08-12T10:35:44;26.10;99.90
1678;DHT22;6034;46.864;15.216;2023-08-12T10:38:13;26.00;99.90
1678;DHT22;6034;46.864;15.216;2023-08-12T10:40:43;25.60;99.90
1678;DHT22;6034;46.864;15.216;2023-08-12T10:43:11;25.50;99.90
1678;DHT22;6034;46.864;15.216;2023-08-12T10:45:44;25.90;99.90
1678;DHT22;6034;46.864;15.216;2023-08-12T10:48:18;26.10;99.90
1678;DHT22;6034;46.864;15.216;2023-08-12T10:50:49;26.10;99.90
1678;DHT22;6034;46.864;15.216;2023-08-12T10:53:23;26.10;99.90
1678;DHT22;6034;46.864;15.216;2023-08-12T10:55:56;26.40;99.90
1678;DHT22;6034;46.864;15.216;2023-08-12T10:58:26;26.50;99.90
1678;DHT22;6034;46.864;15.216;2023-08-12T11:00:54;26.10;99.90
1678;DHT22;6034;46.864;15.216;2023-08-12T11:03:22;26.30;99.90
1678;DHT22;6034;46.864;15.216;2023-08-12T11:05:51;26.40;99.90
1678;DHT22;6034;46.864;15.216;2023-08-12T11:08:24;26.30;99.90
1678;DHT22;6034;46.864;15.216;2023-08-12T11:10:55;26.60;99.90
1678;DHT22;6034;46.864;15.216;2023-08-12T11:13:23;26.30;99.90
1678;DHT22;6034;46.864;15.216;2023-08-12T11:16:06;26.40;99.90
1678;DHT22;6034;46.864;15.216;2023-08-12T11:18:34;26.50;99.90
1678;DHT22;6034;46.864;15.216;2023-08-12T11:21:03;26.50;99.90
1678;DHT22;6034;46.864;15.216;2023-08-12T11:23:31;26.70;99.90
1678;DHT22;6034;46.864;15.216;2023-08-12T11:26:00;26.80;99.90
1678;DHT22;6034;46.864;15.216;2023-08-12T11:28:28;26.90;99.90
1678;DHT22;6034;46.864;15.216;2023-08-12T11:30:56;27.00;99.90
1678;DHT22;6034;46.864;15.216;2023-08-12T11:33:24;27.00;99.90
1678;DHT22;6034;46.864;15.216;2023-08-12T11:35:51;27.00;99.90
1678;DHT22;6034;46.864;15.216;2023-08-12T11:38:20;26.80;99.90
1678;DHT22;6034;46.864;15.216;2023-08-12T11:40:47;26.90;99.90
1678;DHT22;6034;46.864;15.216;2023-08-12T11:43:21;26.70;99.90
1678;DHT22;6034;46.864;15.216;2023-08-12T11:45:48;26.90;99.90
1678;DHT22;6034;46.864;15.216;2023-08-12T11:48:16;27.10;99.90
1678;DHT22;6034;46.864;15.216;2023-08-12T11:50:43;27.00;99.90
1678;DHT22;6034;46.864;15.216;2023-08-12T11:53:11;27.20;99.90
1678;DHT22;6034;46.864;15.216;2023-08-12T11:55:40;27.30;99.90
1678;DHT22;6034;46.864;15.216;2023-08-12T11:58:07;27.30;99.90
1678;DHT22;6034;46.864;15.216;2023-08-12T12:00:34;27.00;99.30
1678;DHT22;6034;46.864;15.216;2023-08-12T12:03:02;27.00;99.90
1678;DHT22;6034;46.864;15.216;2023-08-12T12:05:31;27.20;99.90
1678;DHT22;6034;46.864;15.216;2023-08-12T12:08:00;27.30;99.90
1678;DHT22;6034;46.864;15.216;2023-08-12T12:10:29;27.40;99.90
1678;DHT22;6034;46.864;15.216;2023-08-12T12:13:00;27.40;99.90
1678;DHT22;6034;46.864;15.216;2023-08-12T12:15:27;27.50;99.90
1678;DHT22;6034;46.864;15.216;2023-08-12T12:17:55;27.60;99.90
1678;DHT22;6034;46.864;15.216;2023-08-12T12:20:22;27.60;99.90
1678;DHT22;6034;46.864;15.216;2023-08-12T12:22:51;27.60;99.90
1678;DHT22;6034;46.864;15.216;2023-08-12T12:25:18;27.60;99.90
1678;DHT22;6034;46.864;15.216;2023-08-12T12:27:47;27.60;99.90
1678;DHT22;6034;46.864;15.216;2023-08-12T12:30:16;27.70;99.90
1678;DHT22;6034;46.864;15.216;2023-08-12T12:32:45;27.70;99.90
1678;DHT22;6034;46.864;15.216;2023-08-12T12:35:12;27.70;99.90
1678;DHT22;6034;46.864;15.216;2023-08-12T12:37:40;27.60;99.90
1678;DHT22;6034;46.864;15.216;2023-08-12T12:40:09;27.60;99.90
1678;DHT22;6034;46.864;15.216;2023-08-12T12:42:37;27.60;99.90
1678;DHT22;6034;46.864;15.216;2023-08-12T12:45:06;27.60;99.30
1678;DHT22;6034;46.864;15.216;2023-08-12T12:47:35;27.60;99.90
1678;DHT22;6034;46.864;15.216;2023-08-12T12:50:04;27.70;99.90
1678;DHT22;6034;46.864;15.216;2023-08-12T12:52:31;27.80;99.90
1678;DHT22;6034;46.864;15.216;2023-08-12T12:54:59;27.70;99.90
1678;DHT22;6034;46.864;15.216;2023-08-12T12:57:26;27.80;99.90
1678;DHT22;6034;46.864;15.216;2023-08-12T12:59:53;27.90;99.90
1678;DHT22;6034;46.864;15.216;2023-08-12T13:02:21;27.90;99.90
1678;DHT22;6034;46.864;15.216;2023-08-12T13:04:50;27.80;99.90
1678;DHT22;6034;46.864;15.216;2023-08-12T13:07:17;27.80;99.90
1678;DHT22;6034;46.864;15.216;2023-08-12T13:09:45;27.10;99.90
1678;DHT22;6034;46.864;15.216;2023-08-12T13:12:12;26.80;99.90
1678;DHT22;6034;46.864;15.216;2023-08-12T13:14:39;27.30;99.90
1678;DHT22;6034;46.864;15.216;2023-08-12T13:17:07;27.50;99.90
1678;DHT22;6034;46.864;15.216;2023-08-12T13:19:34;27.50;99.90
1678;DHT22;6034;46.864;15.216;2023-08-12T13:22:03;27.30;99.90
1678;DHT22;6034;46.864;15.216;2023-08-12T13:24:31;27.40;99.90
1678;DHT22;6034;46.864;15.216;2023-08-12T13:26:58;27.50;99.90
1678;DHT22;6034;46.864;15.216;2023-08-12T13:29:25;27.40;99.90
1678;DHT22;6034;46.864;15.216;2023-08-12T13:31:53;27.50;99.90
1678;DHT22;6034;46.864;15.216;2023-08-12T13:34:20;27.50;99.90
1678;DHT22;6034;46.864;15.216;2023-08-12T13:36:48;27.20;99.90
1678;DHT22;6034;46.864;15.216;2023-08-12T13:39:17;27.20;99.90
1678;DHT22;6034;46.864;15.216;2023-08-12T13:41:44;27.40;99.90
1678;DHT22;6034;46.864;15.216;2023-08-12T13:44:12;27.00;99.90
1678;DHT22;6034;46.864;15.216;2023-08-12T13:46:39;27.10;99.90
1678;DHT22;6034;46.864;15.216;2023-08-12T13:49:07;27.20;99.90
1678;DHT22;6034;46.864;15.216;2023-08-12T13:51:34;27.30;99.90
1678;DHT22;6034;46.864;15.216;2023-08-12T13:54:02;27.40;99.90
1678;DHT22;6034;46.864;15.216;2023-08-12T13:56:31;27.40;99.90
1678;DHT22;6034;46.864;15.216;2023-08-12T13:58:59;27.50;99.90
1678;DHT22;6034;46.864;15.216;2023-08-12T14:01:26;26.70;99.90
1678;DHT22;6034;46.864;15.216;2023-08-12T14:03:53;26.70;99.90
1678;DHT22;6034;46.864;15.216;2023-08-12T14:06:21;26.20;99.90
1678;DHT22;6034;46.864;15.216;2023-08-12T14:08:48;26.30;99.90
1678;DHT22;6034;46.864;15.216;2023-08-12T14:11:15;26.00;99.90
1678;DHT22;6034;46.864;15.216;2023-08-12T14:13:44;25.90;99.90
1678;DHT22;6034;46.864;15.216;2023-08-12T14:16:12;26.20;99.90
1678;DHT22;6034;46.864;15.216;2023-08-12T14:18:39;26.20;99.90
1678;DHT22;6034;46.864;15.216;2023-08-12T14:21:06;26.20;99.90
1678;DHT22;6034;46.864;15.216;2023-08-12T14:23:34;26.30;99.90
1678;DHT22;6034;46.864;15.216;2023-08-12T14:26:02;26.30;99.90
1678;DHT22;6034;46.864;15.216;2023-08-12T14:28:29;25.80;99.90
1678;DHT22;6034;46.864;15.216;2023-08-12T14:30:58;26.00;99.90
1678;DHT22;6034;46.864;15.216;2023-08-12T14:33:26;26.10;99.90
1678;DHT22;6034;46.864;15.216;2023-08-12T14:35:57;26.10;99.90
1678;DHT22;6034;46.864;15.216;2023-08-12T14:38:25;26.00;99.90
1678;DHT22;6034;46.864;15.216;2023-08-12T14:40:52;26.10;99.90
1678;DHT22;6034;46.864;15.216;2023-08-12T14:43:19;26.00;99.90
1678;DHT22;6034;46.864;15.216;2023-08-12T14:45:46;26.00;99.90
1678;DHT22;6034;46.864;15.216;2023-08-12T14:48:15;25.80;99.90
1678;DHT22;6034;46.864;15.216;2023-08-12T14:50:44;26.00;99.90
1678;DHT22;6034;46.864;15.216;2023-08-12T14:53:11;25.80;99.90
1678;DHT22;6034;46.864;15.216;2023-08-12T14:55:38;25.80;99.90
1678;DHT22;6034;46.864;15.216;2023-08-12T14:58:06;25.80;99.90
1678;DHT22;6034;46.864;15.216;2023-08-12T15:00:36;25.70;99.90
1678;DHT22;6034;46.864;15.216;2023-08-12T15:03:04;25.60;99.90
1678;DHT22;6034;46.864;15.216;2023-08-12T15:05:33;25.60;99.90
1678;DHT22;6034;46.864;15.216;2023-08-12T15:08:00;25.70;99.90
1678;DHT22;6034;46.864;15.216;2023-08-12T15:10:29;25.80;99.90
1678;DHT22;6034;46.864;15.216;2023-08-12T15:12:57;25.80;99.90
1678;DHT22;6034;46.864;15.216;2023-08-12T15:15:24;25.90;99.90
1678;DHT22;6034;46.864;15.216;2023-08-12T15:17:51;25.90;99.90
1678;DHT22;6034;46.864;15.216;2023-08-12T15:20:19;25.90;99.90
1678;DHT22;6034;46.864;15.216;2023-08-12T15:22:48;25.90;99.90
1678;DHT22;6034;46.864;15.216;2023-08-12T15:25:15;25.90;99.90
1678;DHT22;6034;46.864;15.216;2023-08-12T15:27:42;25.90;99.90
1678;DHT22;6034;46.864;15.216;2023-08-12T15:30:10;25.90;99.90
1678;DHT22;6034;46.864;15.216;2023-08-12T15:32:38;25.80;99.90
1678;DHT22;6034;46.864;15.216;2023-08-12T15:35:06;25.80;99.90
1678;DHT22;6034;46.864;15.216;2023-08-12T15:37:35;25.80;99.90
1678;DHT22;6034;46.864;15.216;2023-08-12T15:40:06;25.70;99.90
1678;DHT22;6034;46.864;15.216;2023-08-12T15:42:34;25.70;99.90
1678;DHT22;6034;46.864;15.216;2023-08-12T15:45:02;25.50;99.90
1678;DHT22;6034;46.864;15.216;2023-08-12T15:47:30;25.40;99.90
1678;DHT22;6034;46.864;15.216;2023-08-12T15:49:58;25.50;99.90
1678;DHT22;6034;46.864;15.216;2023-08-12T15:52:25;25.50;99.90
1678;DHT22;6034;46.864;15.216;2023-08-12T15:54:55;25.50;99.90
1678;DHT22;6034;46.864;15.216;2023-08-12T15:57:24;25.30;99.90
1678;DHT22;6034;46.864;15.216;2023-08-12T15:59:52;25.00;99.90
1678;DHT22;6034;46.864;15.216;2023-08-12T16:02:19;25.20;99.90
1678;DHT22;6034;46.864;15.216;2023-08-12T16:04:47;25.30;99.90
1678;DHT22;6034;46.864;15.216;2023-08-12T16:07:14;25.20;99.90
1678;DHT22;6034;46.864;15.216;2023-08-12T16:09:43;25.10;99.90
1678;DHT22;6034;46.864;15.216;2023-08-12T16:12:10;25.10;99.90
1678;DHT22;6034;46.864;15.216;2023-08-12T16:14:39;25.10;99.90
1678;DHT22;6034;46.864;15.216;2023-08-12T16:17:06;25.20;99.90
1678;DHT22;6034;46.864;15.216;2023-08-12T16:19:35;25.10;99.90
1678;DHT22;6034;46.864;15.216;2023-08-12T16:22:02;25.10;99.90
1678;DHT22;6034;46.864;15.216;2023-08-12T16:24:30;25.10;99.90
1678;DHT22;6034;46.864;15.216;2023-08-12T16:26:57;25.10;99.90
1678;DHT22;6034;46.864;15.216;2023-08-12T16:29:25;25.00;99.90
1678;DHT22;6034;46.864;15.216;2023-08-12T16:31:54;25.00;99.90
1678;DHT22;6034;46.864;15.216;2023-08-12T16:34:22;24.80;99.90
1678;DHT22;6034;46.864;15.216;2023-08-12T16:36:50;24.80;99.90
1678;DHT22;6034;46.864;15.216;2023-08-12T16:39:17;24.70;99.90
1678;DHT22;6034;46.864;15.216;2023-08-12T16:41:45;24.70;99.90
1678;DHT22;6034;46.864;15.216;2023-08-12T16:44:12;24.70;99.90
1678;DHT22;6034;46.864;15.216;2023-08-12T16:46:40;24.80;99.90
1678;DHT22;6034;46.864;15.216;2023-08-12T16:49:09;24.70;99.90
1678;DHT22;6034;46.864;15.216;2023-08-12T16:51:37;24.60;99.90
1678;DHT22;6034;46.864;15.216;2023-08-12T16:54:05;24.70;99.90
1678;DHT22;6034;46.864;15.216;2023-08-12T16:56:32;24.70;99.90
1678;DHT22;6034;46.864;15.216;2023-08-12T16:59:00;24.60;99.90
1678;DHT22;6034;46.864;15.216;2023-08-12T17:01:28;24.70;99.90
1678;DHT22;6034;46.864;15.216;2023-08-12T17:03:55;24.70;99.90
1678;DHT22;6034;46.864;15.216;2023-08-12T17:06:24;24.70;99.90
1678;DHT22;6034;46.864;15.216;2023-08-12T17:08:52;24.60;99.90
1678;DHT22;6034;46.864;15.216;2023-08-12T17:11:19;24.50;99.90
1678;DHT22;6034;46.864;15.216;2023-08-12T17:13:47;24.50;99.90
1678;DHT22;6034;46.864;15.216;2023-08-12T17:16:14;24.50;99.90
1678;DHT22;6034;46.864;15.216;2023-08-12T17:18:41;24.50;99.90
1678;DHT22;6034;46.864;15.216;2023-08-12T17:21:09;24.50;99.90
1678;DHT22;6034;46.864;15.216;2023-08-12T17:23:37;24.50;99.90
1678;DHT22;6034;46.864;15.216;2023-08-12T17:26:05;24.40;99.90
1678;DHT22;6034;46.864;15.216;2023-08-12T17:28:32;24.30;99.90
1678;DHT22;6034;46.864;15.216;2023-08-12T17:31:00;24.30;99.90
1678;DHT22;6034;46.864;15.216;2023-08-12T17:33:27;24.10;99.90
1678;DHT22;6034;46.864;15.216;2023-08-12T17:35:54;24.10;99.90
1678;DHT22;6034;46.864;15.216;2023-08-12T17:38:22;24.00;99.90
1678;DHT22;6034;46.864;15.216;2023-08-12T17:40:51;24.00;99.90
1678;DHT22;6034;46.864;15.216;2023-08-12T17:43:19;23.90;99.90
1678;DHT22;6034;46.864;15.216;2023-08-12T17:45:46;23.90;99.90
1678;DHT22;6034;46.864;15.216;2023-08-12T17:48:13;24.00;99.90
1678;DHT22;6034;46.864;15.216;2023-08-12T17:50:41;23.80;99.90
1678;DHT22;6034;46.864;15.216;2023-08-12T17:53:08;23.70;99.90
1678;DHT22;6034;46.864;15.216;2023-08-12T17:55:36;23.70;99.90
1678;DHT22;6034;46.864;15.216;2023-08-12T17:58:05;23.60;99.90
1678;DHT22;6034;46.864;15.216;2023-08-12T18:00:32;23.60;99.90
1678;DHT22;6034;46.864;15.216;2023-08-12T18:03:00;23.60;99.90
1678;DHT22;6034;46.864;15.216;2023-08-12T18:05:27;23.50;99.90
1678;DHT22;6034;46.864;15.216;2023-08-12T18:07:55;23.50;99.90
1678;DHT22;6034;46.864;15.216;2023-08-12T18:10:23;23.00;99.90
1678;DHT22;6034;46.864;15.216;2023-08-12T18:12:52;23.40;99.90
1678;DHT22;6034;46.864;15.216;2023-08-12T18:15:20;23.40;99.90
1678;DHT22;6034;46.864;15.216;2023-08-12T18:17:48;23.30;99.90
1678;DHT22;6034;46.864;15.216;2023-08-12T18:20:18;23.30;99.90
1678;DHT22;6034;46.864;15.216;2023-08-12T18:22:46;23.30;99.90
1678;DHT22;6034;46.864;15.216;2023-08-12T18:25:13;23.20;99.90
1678;DHT22;6034;46.864;15.216;2023-08-12T18:27:40;23.10;99.90
1678;DHT22;6034;46.864;15.216;2023-08-12T18:30:09;23.10;99.90
1678;DHT22;6034;46.864;15.216;2023-08-12T18:32:39;23.00;99.90
1678;DHT22;6034;46.864;15.216;2023-08-12T18:35:08;23.00;99.90
1678;DHT22;6034;46.864;15.216;2023-08-12T18:37:37;23.00;99.90
1678;DHT22;6034;46.864;15.216;2023-08-12T18:40:06;22.90;99.90
1678;DHT22;6034;46.864;15.216;2023-08-12T18:42:35;22.90;99.90
1678;DHT22;6034;46.864;15.216;2023-08-12T18:45:05;22.90;99.90
1678;DHT22;6034;46.864;15.216;2023-08-12T18:47:33;22.90;99.90
1678;DHT22;6034;46.864;15.216;2023-08-12T18:50:03;22.80;99.90
1678;DHT22;6034;46.864;15.216;2023-08-12T18:52:32;22.70;99.90
1678;DHT22;6034;46.864;15.216;2023-08-12T18:55:00;22.70;99.90
1678;DHT22;6034;46.864;15.216;2023-08-12T18:57:27;22.70;99.90
1678;DHT22;6034;46.864;15.216;2023-08-12T18:59:56;22.60;99.90
1678;DHT22;6034;46.864;15.216;2023-08-12T19:02:24;22.60;99.90
1678;DHT22;6034;46.864;15.216;2023-08-12T19:04:52;22.60;99.90
1678;DHT22;6034;46.864;15.216;2023-08-12T19:07:21;22.60;99.90
1678;DHT22;6034;46.864;15.216;2023-08-12T19:09:49;22.50;99.90
1678;DHT22;6034;46.864;15.216;2023-08-12T19:12:17;22.50;99.90
1678;DHT22;6034;46.864;15.216;2023-08-12T19:14:45;22.40;99.90
1678;DHT22;6034;46.864;15.216;2023-08-12T19:17:12;22.30;99.90
1678;DHT22;6034;46.864;15.216;2023-08-12T19:19:40;22.30;99.90
1678;DHT22;6034;46.864;15.216;2023-08-12T19:22:07;22.20;99.90
1678;DHT22;6034;46.864;15.216;2023-08-12T19:24:37;22.30;99.90
1678;DHT22;6034;46.864;15.216;2023-08-12T19:27:07;22.20;99.90
1678;DHT22;6034;46.864;15.216;2023-08-12T19:29:40;22.20;99.90
1678;DHT22;6034;46.864;15.216;2023-08-12T19:32:10;22.20;99.90
1678;DHT22;6034;46.864;15.216;2023-08-12T19:34:38;22.20;99.90
1678;DHT22;6034;46.864;15.216;2023-08-12T19:37:06;22.30;99.90
1678;DHT22;6034;46.864;15.216;2023-08-12T19:39:33;22.30;99.90
1678;DHT22;6034;46.864;15.216;2023-08-12T19:42:03;22.30;99.90
1678;DHT22;6034;46.864;15.216;2023-08-12T19:44:33;22.30;99.90
1678;DHT22;6034;46.864;15.216;2023-08-12T19:47:04;22.30;99.90
1678;DHT22;6034;46.864;15.216;2023-08-12T19:49:33;22.20;99.90
1678;DHT22;6034;46.864;15.216;2023-08-12T19:52:02;22.10;99.90
1678;DHT22;6034;46.864;15.216;2023-08-12T19:54:31;22.20;99.90
1678;DHT22;6034;46.864;15.216;2023-08-12T19:57:00;22.20;99.90
1678;DHT22;6034;46.864;15.216;2023-08-12T19:59:29;22.30;99.90
1678;DHT22;6034;46.864;15.216;2023-08-12T20:01:57;22.30;99.90
1678;DHT22;6034;46.864;15.216;2023-08-12T20:04:26;22.30;99.90
1678;DHT22;6034;46.864;15.216;2023-08-12T20:06:57;22.30;99.90
1678;DHT22;6034;46.864;15.216;2023-08-12T20:09:25;22.20;99.90
1678;DHT22;6034;46.864;15.216;2023-08-12T20:11:54;22.20;99.90
1678;DHT22;6034;46.864;15.216;2023-08-12T20:14:21;22.20;99.90
1678;DHT22;6034;46.864;15.216;2023-08-12T20:16:50;22.20;99.90
1678;DHT22;6034;46.864;15.216;2023-08-12T20:19:19;22.20;99.90
1678;DHT22;6034;46.864;15.216;2023-08-12T20:21:49;22.10;99.90
1678;DHT22;6034;46.864;15.216;2023-08-12T20:24:17;22.00;99.90
1678;DHT22;6034;46.864;15.216;2023-08-12T20:26:46;22.10;99.90
1678;DHT22;6034;46.864;15.216;2023-08-12T20:29:15;22.00;99.90
1678;DHT22;6034;46.864;15.216;2023-08-12T20:31:43;22.00;99.90
1678;DHT22;6034;46.864;15.216;2023-08-12T20:34:13;21.80;99.90
1678;DHT22;6034;46.864;15.216;2023-08-12T20:36:42;21.80;99.90
1678;DHT22;6034;46.864;15.216;2023-08-12T20:39:10;21.80;99.90
1678;DHT22;6034;46.864;15.216;2023-08-12T20:41:39;21.70;99.90
1678;DHT22;6034;46.864;15.216;2023-08-12T20:44:07;21.70;99.90
1678;DHT22;6034;46.864;15.216;2023-08-12T20:46:34;21.60;99.90
1678;DHT22;6034;46.864;15.216;2023-08-12T20:49:02;21.60;99.90
1678;DHT22;6034;46.864;15.216;2023-08-12T20:51:33;21.50;99.90
1678;DHT22;6034;46.864;15.216;2023-08-12T20:54:02;21.50;99.90
1678;DHT22;6034;46.864;15.216;2023-08-12T20:56:30;21.60;99.90
1678;DHT22;6034;46.864;15.216;2023-08-12T20:58:58;21.70;99.90
1678;DHT22;6034;46.864;15.216;2023-08-12T21:01:26;21.60;99.90
1678;DHT22;6034;46.864;15.216;2023-08-12T21:03:53;21.60;99.90
1678;DHT22;6034;46.864;15.216;2023-08-12T21:06:21;21.60;99.90
1678;DHT22;6034;46.864;15.216;2023-08-12T21:08:49;21.60;99.90
1678;DHT22;6034;46.864;15.216;2023-08-12T21:11:17;21.60;99.90
1678;DHT22;6034;46.864;15.216;2023-08-12T21:13:44;21.60;99.90
1678;DHT22;6034;46.864;15.216;2023-08-12T21:16:11;21.60;99.90
1678;DHT22;6034;46.864;15.216;2023-08-12T21:18:39;21.70;99.90
1678;DHT22;6034;46.864;15.216;2023-08-12T21:21:08;21.70;99.90
1678;DHT22;6034;46.864;15.216;2023-08-12T21:23:35;21.60;99.90
1678;DHT22;6034;46.864;15.216;2023-08-12T21:26:04;21.60;99.90
1678;DHT22;6034;46.864;15.216;2023-08-12T21:28:31;21.60;99.90
1678;DHT22;6034;46.864;15.216;2023-08-12T21:30:58;21.60;99.90
1678;DHT22;6034;46.864;15.216;2023-08-12T21:33:26;21.60;99.90
1678;DHT22;6034;46.864;15.216;2023-08-12T21:35:53;21.60;99.90
1678;DHT22;6034;46.864;15.216;2023-08-12T21:38:21;21.70;99.90
1678;DHT22;6034;46.864;15.216;2023-08-12T21:40:48;21.60;99.90
1678;DHT22;6034;46.864;15.216;2023-08-12T21:43:17;21.60;99.90
1678;DHT22;6034;46.864;15.216;2023-08-12T21:45:44;21.60;99.90
1678;DHT22;6034;46.864;15.216;2023-08-12T21:48:12;21.60;99.90
1678;DHT22;6034;46.864;15.216;2023-08-12T21:50:40;21.40;99.90
1678;DHT22;6034;46.864;15.216;2023-08-12T21:53:07;21.40;99.90
1678;DHT22;6034;46.864;15.216;2023-08-12T21:55:35;21.40;99.90
1678;DHT22;6034;46.864;15.216;2023-08-12T21:58:02;21.30;99.90
1678;DHT22;6034;46.864;15.216;2023-08-12T22:00:31;21.20;99.90
1678;DHT22;6034;46.864;15.216;2023-08-12T22:02:58;21.30;99.90
1678;DHT22;6034;46.864;15.216;2023-08-12T22:05:26;21.10;99.90